Time;durP1;ratioP1;P1;durP2;ratioP2;P2;SDS_P1;SDS_P2;PMS_P1;PMS_P2;Temp;Humidity;BMP_temperature;BMP_pressure;BME280_temperature;BME280_humidity;BME280_pressure;Samples;Min_cycle;Max_cycle;Signal;HPM_P1;HPM_P2
2021/10/28 00:14:27;;;;;;;33.03;18.65;;;;;;;8.77;100.00;102028.78;5053780;28;20126;-76
2021/10/28 00:16:55;;;;;;;27.95;16.85;;;;;;;8.73;100.00;102022.81;5054272;28;20063;-76
2021/10/28 00:19:21;;;;;;;27.40;17.40;;;;;;;8.74;100.00;102018.34;5053567;28;20045;-75
2021/10/28 00:21:49;;;;;;;25.40;17.02;;;;;;;8.74;100.00;102018.34;5053881;28;20493;-76
2021/10/28 00:24:15;;;;;;;31.35;18.17;;;;;;;8.74;100.00;102021.84;5053482;28;20389;-77
2021/10/28 00:26:44;;;;;;;31.23;17.02;;;;;;;8.72;100.00;102010.50;5054150;28;20041;-76
2021/10/28 00:29:15;;;;;;;32.40;17.40;;;;;;;8.71;100.00;102018.56;5054056;28;20025;-76
2021/10/28 00:31:42;;;;;;;32.25;17.20;;;;;;;8.68;100.00;102016.94;5054171;28;20029;-76
2021/10/28 00:34:08;;;;;;;29.92;16.73;;;;;;;8.65;100.00;102011.84;5053795;28;20314;-76
2021/10/28 00:36:35;;;;;;;30.88;17.17;;;;;;;8.66;100.00;102013.56;5053064;28;20108;-76
2021/10/28 00:39:02;;;;;;;28.10;15.65;;;;;;;8.61;100.00;102005.88;5053840;28;20037;-76
2021/10/28 00:41:27;;;;;;;28.73;16.35;;;;;;;8.58;100.00;102006.09;5053239;28;20045;-76
2021/10/28 00:43:58;;;;;;;34.20;18.23;;;;;;;8.53;100.00;102002.84;5053706;28;20128;-76
2021/10/28 00:46:27;;;;;;;27.33;16.75;;;;;;;8.45;100.00;102005.16;5052271;28;20045;-76
2021/10/28 00:48:53;;;;;;;27.88;17.35;;;;;;;8.41;100.00;102003.59;5053804;28;20064;-76
2021/10/28 00:51:22;;;;;;;25.35;14.95;;;;;;;8.35;100.00;102004.84;5053087;28;20037;-76
2021/10/28 00:53:50;;;;;;;31.13;16.35;;;;;;;8.29;100.00;102003.41;5053621;28;20032;-76
2021/10/28 00:56:16;;;;;;;27.52;15.77;;;;;;;8.25;100.00;101998.41;5053585;28;20095;-76
2021/10/28 00:58:41;;;;;;;30.65;17.20;;;;;;;8.19;100.00;102002.28;5052832;28;20082;-76
2021/10/28 01:01:08;;;;;;;25.88;15.82;;;;;;;8.13;100.00;101997.34;5053409;28;20036;-76
2021/10/28 01:03:35;;;;;;;35.67;18.63;;;;;;;8.07;100.00;102005.69;5052829;28;20118;-77
2021/10/28 01:06:02;;;;;;;30.98;17.17;;;;;;;7.99;100.00;102013.28;5053317;28;20033;-76
2021/10/28 01:08:28;;;;;;;35.63;18.00;;;;;;;7.91;100.00;102004.00;5052698;28;20033;-76
2021/10/28 01:10:53;;;;;;;43.92;19.73;;;;;;;7.86;100.00;101992.81;5053070;28;20044;-76
2021/10/28 01:13:21;;;;;;;37.70;22.02;;;;;;;7.87;100.00;102001.63;5052050;28;20033;-78
2021/10/28 01:15:48;;;;;;;41.65;20.38;;;;;;;7.86;100.00;102000.75;5050505;28;20037;-76
2021/10/28 01:18:15;;;;;;;41.10;21.98;;;;;;;7.85;100.00;102003.50;5049802;28;20500;-76
2021/10/28 01:20:52;;;;;;;43.85;22.58;;;;;;;7.87;100.00;101993.66;5051106;28;20040;-76
2021/10/28 01:23:21;;;;;;;49.25;24.23;;;;;;;7.88;100.00;101995.34;5052566;28;20082;-76
2021/10/28 01:25:55;;;;;;;40.83;21.85;;;;;;;7.88;100.00;101990.06;5052824;28;20075;-76
2021/10/28 01:28:22;;;;;;;44.80;22.15;;;;;;;7.86;100.00;101992.81;5052675;28;20032;-80
2021/10/28 01:30:54;;;;;;;52.65;23.60;;;;;;;7.82;100.00;101993.91;5052961;28;20063;-76
2021/10/28 01:33:20;;;;;;;44.28;21.83;;;;;;;7.82;100.00;101985.13;5052627;28;20036;-76
2021/10/28 01:35:46;;;;;;;48.08;24.20;;;;;;;7.84;100.00;101983.25;5052550;28;20119;-76
2021/10/28 01:38:13;;;;;;;54.85;25.85;;;;;;;7.90;100.00;101988.19;5052729;28;20116;-76
2021/10/28 01:40:40;;;;;;;58.83;26.00;;;;;;;7.93;100.00;101986.19;5052117;28;20095;-76
2021/10/28 01:43:06;;;;;;;60.10;27.05;;;;;;;7.91;100.00;101979.25;5052744;28;20037;-76
2021/10/28 01:45:31;;;;;;;57.75;25.70;;;;;;;7.89;100.00;101976.72;5052094;28;20515;-76
2021/10/28 01:47:57;;;;;;;62.30;25.85;;;;;;;7.92;100.00;101975.69;5052338;28;20515;-76
2021/10/28 01:50:23;;;;;;;64.43;27.02;;;;;;;7.98;100.00;101980.59;5052633;28;20035;-81
2021/10/28 01:52:49;;;;;;;59.33;24.77;;;;;;;7.97;100.00;101972.75;5052589;28;20039;-75
2021/10/28 01:55:14;;;;;;;60.22;25.45;;;;;;;7.95;100.00;101967.53;5052300;28;20041;-76
2021/10/28 01:57:41;;;;;;;70.50;25.83;;;;;;;7.92;100.00;101965.91;5051662;28;20481;-76
2021/10/28 02:00:17;;;;;;;67.97;26.73;;;;;;;7.96;100.00;101963.94;5052420;28;20025;-76
2021/10/28 02:02:45;;;;;;;52.25;22.90;;;;;;;7.95;100.00;101957.78;5051760;28;20098;-76
2021/10/28 02:05:16;;;;;;;56.13;24.65;;;;;;;7.97;100.00;101962.16;5052147;28;20433;-76
2021/10/28 02:07:42;;;;;;;62.17;24.13;;;;;;;7.98;100.00;101966.50;5051662;28;20033;-79
2021/10/28 02:10:09;;;;;;;62.45;25.52;;;;;;;7.93;100.00;101959.69;5052508;28;20029;-77
2021/10/28 02:12:36;;;;;;;52.97;22.45;;;;;;;7.91;100.00;101960.72;5051307;28;20060;-77
2021/10/28 02:15:09;;;;;;;60.60;24.33;;;;;;;7.91;100.00;101956.28;5052420;28;20025;-76
2021/10/28 02:17:35;;;;;;;68.03;25.13;;;;;;;7.92;100.00;101951.81;5051750;28;20488;-76
2021/10/28 02:20:05;;;;;;;64.15;25.27;;;;;;;7.93;100.00;101948.25;5052397;28;20053;-76
2021/10/28 02:22:30;;;;;;;59.28;24.65;;;;;;;7.92;100.00;101952.66;5051705;28;20102;-76
2021/10/28 02:24:56;;;;;;;71.05;25.17;;;;;;;7.95;100.00;101949.81;5052408;28;20033;-76
2021/10/28 02:27:22;;;;;;;59.35;23.55;;;;;;;7.93;100.00;101945.59;5052262;28;20032;-76
2021/10/28 02:29:47;;;;;;;73.88;24.48;;;;;;;7.90;100.00;101956.38;5051199;28;20037;-76
2021/10/28 02:32:13;;;;;;;62.03;23.55;;;;;;;7.84;100.00;101947.00;5052412;28;20036;-76
2021/10/28 02:34:38;;;;;;;64.32;22.48;;;;;;;7.79;100.00;101950.88;5051577;28;20033;-76
2021/10/28 02:37:08;;;;;;;55.47;22.40;;;;;;;7.69;100.00;101940.84;5051967;28;20120;-76
2021/10/28 02:39:33;;;;;;;56.63;22.45;;;;;;;7.63;100.00;101945.66;5051506;28;20469;-77
2021/10/28 02:41:59;;;;;;;56.03;22.63;;;;;;;7.58;100.00;101944.16;5052260;28;20044;-77
2021/10/28 02:44:25;;;;;;;61.65;22.58;;;;;;;7.54;100.00;101944.44;5051999;28;20074;-76
2021/10/28 02:46:51;;;;;;;72.30;26.50;;;;;;;7.51;100.00;101937.50;5051499;28;20033;-76
2021/10/28 02:49:16;;;;;;;78.57;27.58;;;;;;;7.50;100.00;101933.16;5051838;28;20044;-77
2021/10/28 02:51:46;;;;;;;79.80;27.63;;;;;;;7.46;100.00;101928.97;5051386;28;20048;-77
2021/10/28 02:54:12;;;;;;;75.75;25.58;;;;;;;7.44;100.00;101930.03;5051971;28;20033;-77
2021/10/28 02:56:37;;;;;;;65.40;26.55;;;;;;;7.38;100.00;101929.44;5051073;28;20036;-77
2021/10/28 02:59:03;;;;;;;70.90;27.45;;;;;;;7.36;100.00;101920.75;5051423;28;20082;-77
2021/10/28 03:01:28;;;;;;;72.60;27.70;;;;;;;7.35;100.00;101920.84;5051373;28;20032;-76
2021/10/28 03:03:53;;;;;;;72.85;27.80;;;;;;;7.33;100.00;101926.22;5051047;28;20167;-76
2021/10/28 03:06:19;;;;;;;83.25;31.25;;;;;;;7.32;100.00;101918.38;5051865;28;20488;-76
2021/10/28 03:08:47;;;;;;;83.05;30.00;;;;;;;7.30;100.00;101912.31;5050948;28;20040;-76
2021/10/28 03:11:12;;;;;;;79.93;30.85;;;;;;;7.30;100.00;101917.59;5053666;28;20032;-76
2021/10/28 03:13:38;;;;;;;81.00;28.95;;;;;;;7.31;100.00;101914.03;5054672;28;20170;-77
2021/10/28 03:27:00;;;;;;;80.25;28.40;;;;;;;7.05;100.00;101905.84;5055525;28;20118;-76
2021/10/28 03:29:26;;;;;;;80.05;29.95;;;;;;;7.04;100.00;101902.31;5055256;28;20120;-76
2021/10/28 03:31:51;;;;;;;86.22;31.65;;;;;;;7.04;100.00;101898.81;5054324;28;20060;-76
2021/10/28 03:34:16;;;;;;;74.93;30.33;;;;;;;7.05;100.00;101896.09;5055115;28;20033;-76
2021/10/28 03:36:50;;;;;;;97.03;34.33;;;;;;;7.06;100.00;101894.28;5054145;28;20040;-76
2021/10/28 04:04:13;;;;;;;75.22;30.10;;;;;;;7.08;100.00;101879.19;5053956;28;20068;-76
2021/10/28 04:31:10;;;;;;;62.65;27.05;;;;;;;6.93;100.00;101862.41;5054113;28;20052;-76
2021/10/28 04:33:41;;;;;;;69.20;30.08;;;;;;;6.94;100.00;101853.56;5054129;28;20033;-77
2021/10/28 04:36:07;;;;;;;75.53;30.83;;;;;;;6.91;100.00;101853.69;5053885;28;20080;-76
2021/10/28 04:38:32;;;;;;;84.18;31.75;;;;;;;6.93;100.00;101859.78;5053882;28;20033;-76
2021/10/28 04:40:58;;;;;;;74.82;31.15;;;;;;;6.92;100.00;101851.94;5051768;28;20485;-76
2021/10/28 04:43:23;;;;;;;80.53;31.52;;;;;;;6.91;100.00;101852.84;5054147;28;20041;-75
2021/10/28 04:45:48;;;;;;;80.68;31.83;;;;;;;6.92;100.00;101851.94;5053126;28;20099;-76
2021/10/28 04:48:14;;;;;;;70.63;29.05;;;;;;;6.87;100.00;101849.56;5053409;28;20112;-76
2021/10/28 04:50:39;;;;;;;76.22;29.95;;;;;;;6.83;100.00;101850.66;5052257;28;20037;-76
2021/10/28 04:53:05;;;;;;;73.20;29.65;;;;;;;6.83;100.00;101848.03;5052826;28;20033;-76
2021/10/28 04:55:30;;;;;;;83.55;31.88;;;;;;;6.81;100.00;101852.56;5053502;28;20519;-76
2021/10/28 04:57:55;;;;;;;72.90;30.45;;;;;;;6.80;100.00;101849.06;5052757;28;20052;-77
2021/10/28 05:00:21;;;;;;;76.93;31.95;;;;;;;6.77;100.00;101859.81;5053051;28;20525;-75
2021/10/28 05:02:46;;;;;;;70.97;30.35;;;;;;;6.75;100.00;101851.13;5051714;28;20548;-77
2021/10/28 05:05:11;;;;;;;83.85;33.65;;;;;;;6.77;100.00;101845.75;5053555;28;20485;-76
2021/10/28 05:07:37;;;;;;;76.22;32.40;;;;;;;6.77;100.00;101846.59;5053344;28;20033;-74
2021/10/28 05:10:03;;;;;;;71.97;31.65;;;;;;;6.74;100.00;101851.22;5052659;28;20025;-80
2021/10/28 05:12:29;;;;;;;67.47;30.58;;;;;;;6.73;100.00;101854.78;5052900;28;20392;-84
2021/10/28 05:14:54;;;;;;;70.80;31.42;;;;;;;6.71;100.00;101850.44;5052711;28;20107;-79
2021/10/28 05:17:21;;;;;;;76.15;28.85;;;;;;;6.68;100.00;101852.41;5051945;28;20132;-79
2021/10/28 05:19:46;;;;;;;62.63;28.58;;;;;;;6.64;100.00;101851.75;5052464;28;20128;-79
2021/10/28 05:22:12;;;;;;;67.20;26.83;;;;;;;6.61;100.00;101854.53;5052815;28;20119;-86
2021/10/28 05:24:37;;;;;;;62.95;28.30;;;;;;;6.56;100.00;101846.03;5053102;28;20037;-81
2021/10/28 05:27:03;;;;;;;69.03;28.52;;;;;;;6.54;100.00;101850.56;5052527;28;20029;-91
2021/10/28 05:29:29;;;;;;;58.58;27.23;;;;;;;6.49;100.00;101845.56;5053151;28;20029;-85
2021/10/28 05:31:55;;;;;;;76.63;29.63;;;;;;;6.47;100.00;101846.56;5052292;28;20443;-80
2021/10/28 05:34:20;;;;;;;76.05;29.67;;;;;;;6.45;100.00;101843.16;5052642;28;20119;-77
2021/10/28 05:36:46;;;;;;;65.35;28.50;;;;;;;6.43;100.00;101837.09;5051855;28;20120;-85
2021/10/28 05:39:11;;;;;;;64.70;28.02;;;;;;;6.40;100.00;101834.63;5052694;28;20079;-88
2021/10/28 05:41:37;;;;;;;61.63;27.15;;;;;;;6.42;100.00;101838.03;5053037;28;20127;-87
2021/10/28 05:44:02;;;;;;;54.40;26.13;;;;;;;6.41;100.00;101834.56;5051337;28;20456;-83
2021/10/28 05:46:28;;;;;;;65.55;29.05;;;;;;;6.42;100.00;101830.97;5053152;28;20041;-84
2021/10/28 05:48:53;;;;;;;75.90;31.10;;;;;;;6.45;100.00;101837.84;5052342;28;20037;-88
2021/10/28 05:51:19;;;;;;;63.63;29.60;;;;;;;6.45;100.00;101825.50;5052890;28;20111;-85
2021/10/28 05:53:46;;;;;;;61.50;27.42;;;;;;;6.41;100.00;101829.25;5055196;28;20029;-85
2021/10/28 05:56:12;;;;;;;55.22;26.92;;;;;;;6.37;100.00;101832.19;5053933;28;20037;-83
2021/10/28 05:58:38;;;;;;;60.25;26.13;;;;;;;6.34;100.00;101825.25;5053835;28;20081;-82
2021/10/28 06:01:04;;;;;;;55.88;25.15;;;;;;;6.34;100.00;101831.44;5051433;28;20443;-83
2021/10/28 06:03:31;;;;;;;59.67;25.58;;;;;;;6.34;100.00;101835.84;5052442;28;20032;-85
2021/10/28 06:05:56;;;;;;;49.80;23.67;;;;;;;6.31;100.00;101842.13;5052070;28;20033;-82
2021/10/28 06:08:22;;;;;;;63.75;27.48;;;;;;;6.28;100.00;101837.03;5052306;28;20041;-78
2021/10/28 06:10:47;;;;;;;52.63;25.10;;;;;;;6.30;100.00;101839.59;5052168;28;20044;-80
2021/10/28 06:13:12;;;;;;;40.95;21.15;;;;;;;6.34;100.00;101843.75;5051735;28;20123;-85
2021/10/28 06:15:38;;;;;;;53.15;25.45;;;;;;;6.37;100.00;101835.66;5051267;28;20039;-84
2021/10/28 06:20:38;;;;;;;59.00;26.08;;;;;;;6.30;100.00;101832.53;5052341;28;20041;-81
2021/10/28 06:23:04;;;;;;;48.35;22.88;;;;;;;6.33;100.00;101827.06;5051357;28;20044;-77
2021/10/28 06:25:30;;;;;;;63.92;26.70;;;;;;;6.40;100.00;101830.19;5051944;28;20055;-85
2021/10/28 06:27:55;;;;;;;57.35;26.15;;;;;;;6.42;100.00;101827.47;5051552;28;20025;-88
2021/10/28 06:30:21;;;;;;;52.53;24.52;;;;;;;6.39;100.00;101820.59;5051149;28;20397;-83
2021/10/28 06:32:53;;;;;;;51.58;24.45;;;;;;;6.34;100.00;101826.13;5052329;28;20031;-85
2021/10/28 06:35:18;;;;;;;56.25;24.60;;;;;;;6.31;100.00;101815.72;5051729;28;20029;-81
2021/10/28 06:37:50;;;;;;;57.72;24.33;;;;;;;6.30;100.00;101813.16;5051959;28;20083;-81
2021/10/28 06:40:18;;;;;;;49.45;23.42;;;;;;;6.34;100.00;101812.91;5051253;28;20033;-83
2021/10/28 06:42:45;;;;;;;48.88;24.75;;;;;;;6.38;100.00;101808.28;5052034;28;20048;-81
2021/10/28 06:45:11;;;;;;;60.28;25.65;;;;;;;6.41;100.00;101810.75;5051753;28;20037;-85
2021/10/28 06:47:36;;;;;;;57.58;25.83;;;;;;;6.40;100.00;101814.34;5056265;28;20029;-82
2021/10/28 06:50:07;;;;;;;52.92;22.63;;;;;;;6.43;100.00;101810.66;5055401;28;20032;-78
2021/10/28 06:52:40;;;;;;;51.63;22.85;;;;;;;6.46;100.00;101805.19;5055000;28;20036;-83
2021/10/28 06:55:09;;;;;;;58.38;26.10;;;;;;;6.49;100.00;101803.25;5054475;28;20087;-82
2021/10/28 07:03:07;;;;;;;50.35;23.75;;;;;;;6.67;100.00;101805.75;5044539;28;20041;-83
2021/10/28 07:05:32;;;;;;;63.55;26.98;;;;;;;6.73;100.00;101801.88;5055935;28;20029;-82
2021/10/28 07:07:58;;;;;;;52.42;24.95;;;;;;;6.78;100.00;101794.56;5055495;28;20112;-84
2021/10/28 07:10:25;;;;;;;61.05;24.13;;;;;;;6.82;100.00;101790.75;5055448;28;20037;-84
2021/10/28 07:15:41;;;;;;;56.88;25.00;;;;;;;6.91;100.00;101790.19;5053655;28;20297;-84
2021/10/28 08:19:47;;;;;;;21.80;11.50;;;;;;;8.71;100.00;101738.13;5053911;28;20068;-88
2021/10/28 08:23:03;;;;;;;18.20;11.77;;;;;;;8.82;100.00;101732.09;5054166;28;20029;-87
2021/10/28 08:30:30;;;;;;;17.92;10.95;;;;;;;9.17;100.00;101711.06;5054194;28;20087;-87
2021/10/28 08:32:57;;;;;;;15.48;10.18;;;;;;;9.26;100.00;101720.19;5053182;28;20053;-86
2021/10/28 08:35:23;;;;;;;17.63;9.73;;;;;;;9.43;100.00;101716.31;5053835;28;20025;-87
2021/10/28 08:37:56;;;;;;;16.33;9.32;;;;;;;9.49;99.25;101718.53;5054635;28;20036;-86
2021/10/28 08:40:21;;;;;;;15.82;9.07;;;;;;;9.67;99.07;101720.81;5059075;28;20474;-88
2021/10/28 08:42:47;;;;;;;17.42;9.13;;;;;;;9.78;97.11;101704.94;5060034;28;20056;-89
2021/10/28 08:45:19;;;;;;;16.63;8.80;;;;;;;9.89;97.31;101706.78;5054881;28;20036;-86
2021/10/28 08:47:50;;;;;;;14.77;8.43;;;;;;;10.12;97.63;101699.78;5055964;28;20083;-87
2021/10/28 08:50:23;;;;;;;13.82;8.40;;;;;;;10.31;94.76;101703.69;5054095;28;20036;-86
2021/10/28 08:58:08;;;;;;;16.45;8.60;;;;;;;10.32;92.33;101690.28;5054214;28;20048;-88
2021/10/28 09:29:20;;;;;;;11.63;7.65;;;;;;;12.30;82.56;101654.09;5050168;28;20512;-88
2021/10/28 09:32:42;;;;;;;11.05;7.38;;;;;;;12.76;80.84;101651.09;5052265;28;20120;-87
2021/10/28 09:35:04;;;;;;;15.48;7.50;;;;;;;12.97;78.91;101654.56;5043275;28;20045;-87
2021/10/28 09:51:31;;;;;;;10.82;6.55;;;;;;;17.16;61.54;101630.41;5050683;28;20064;-82
2021/10/28 09:54:11;;;;;;;12.23;6.72;;;;;;;18.17;57.03;101632.06;5050675;28;20036;-82
2021/10/28 09:59:42;;;;;;;;;;;;;;;19.48;52.43;101632.59;5051546;28;20425;-75
2021/10/28 10:02:18;;;;;;;14.75;6.05;;;;;;;19.33;52.31;101627.13;5051546;28;19931;-76
2021/10/28 10:04:46;;;;;;;11.93;5.82;;;;;;;19.22;52.37;101622.97;5051848;28;20086;-79
2021/10/28 10:07:17;;;;;;;8.25;5.68;;;;;;;19.02;53.48;101620.72;5051750;28;20037;-76
2021/10/28 10:09:43;;;;;;;9.98;5.40;;;;;;;18.31;53.29;101615.19;5051814;28;20116;-76
2021/10/28 10:12:09;;;;;;;8.52;6.25;;;;;;;17.54;57.40;101617.34;5051114;28;20119;-77
2021/10/28 10:14:36;;;;;;;9.13;6.25;;;;;;;16.18;61.85;101621.66;5050724;28;20064;-76
2021/10/28 10:17:02;;;;;;;13.77;6.15;;;;;;;15.41;65.54;101617.75;5051363;28;20033;-76
2021/10/28 10:19:38;;;;;;;13.32;6.20;;;;;;;14.62;67.90;101617.31;5053947;28;20534;-77
2021/10/28 11:21:44;;;;;;;9.77;6.15;;;;;;;13.93;70.86;101558.59;5057612;28;20039;-76
2021/10/28 11:30:41;;;;;;;12.02;6.90;;;;;;;14.43;70.44;101545.91;5022308;28;20476;-76
2021/10/28 12:20:31;;;;;;;13.00;7.18;;;;;;;14.90;66.41;101460.13;5051709;28;20053;-80
2021/10/28 12:48:33;;;;;;;10.73;6.22;;;;;;;17.92;57.85;101421.25;5052885;28;20098;-86
2021/10/28 12:53:39;;;;;;;12.65;6.18;;;;;;;19.22;54.55;101411.75;5052926;28;20087;-80
2021/10/28 13:35:36;;;;;;;11.65;5.32;;;;;;;15.43;64.43;101374.44;5051540;28;20047;-84
2021/10/28 13:38:02;;;;;;;12.65;6.10;;;;;;;15.25;65.65;101369.13;5051234;28;20040;-78
2021/10/28 14:23:55;;;;;;;9.10;4.95;;;;;;;16.37;60.37;101330.56;5051288;28;20091;-86
2021/10/28 15:01:50;;;;;;;11.05;4.78;;;;;;;15.07;64.93;101311.03;5051287;28;20044;-81
2021/10/28 15:28:47;;;;;;;9.93;4.40;;;;;;;13.37;70.68;101295.56;5054090;28;20091;-81
2021/10/28 15:36:19;;;;;;;7.15;4.63;;;;;;;13.11;72.41;101287.31;5051710;28;20072;-80
2021/10/28 16:21:53;;;;;;;13.13;4.78;;;;;;;11.85;78.35;101248.97;5051406;28;20177;-80
2021/10/28 16:24:27;;;;;;;8.05;4.82;;;;;;;11.80;77.98;101248.56;5051605;28;20491;-83
2021/10/28 16:26:53;;;;;;;7.05;4.88;;;;;;;11.74;78.07;101241.94;5051440;28;20024;-82
2021/10/28 16:29:19;;;;;;;8.30;4.75;;;;;;;11.67;78.43;101232.81;5051313;28;20106;-82
2021/10/28 16:31:45;;;;;;;10.45;5.13;;;;;;;11.60;78.78;101229.84;5033616;28;20067;-85
2021/10/28 16:34:11;;;;;;;9.20;4.72;;;;;;;11.52;78.50;101213.69;5050832;28;20116;-81
2021/10/28 16:36:37;;;;;;;11.35;4.93;;;;;;;11.47;79.21;101213.25;5051249;28;20473;-82
2021/10/28 16:39:08;;;;;;;14.32;5.15;;;;;;;11.42;78.98;101215.47;5050705;28;20037;-82
2021/10/28 16:41:35;;;;;;;8.68;4.88;;;;;;;11.34;79.57;101223.31;5050731;28;20052;-75
2021/10/28 16:44:01;;;;;;;7.15;4.82;;;;;;;11.23;79.83;101222.44;5050478;28;20028;-76
2021/10/28 16:46:27;;;;;;;9.00;4.85;;;;;;;11.21;80.46;101221.72;5051204;28;20057;-74
2021/10/28 16:48:53;;;;;;;7.82;4.93;;;;;;;11.28;79.60;101225.53;5050667;28;20068;-80
2021/10/28 16:51:18;;;;;;;8.32;4.55;;;;;;;11.26;79.80;101224.00;5051093;28;20041;-77
2021/10/28 16:53:45;;;;;;;8.48;4.80;;;;;;;11.25;80.21;101231.13;5049576;28;20076;-74
2021/10/28 16:56:14;;;;;;;7.85;4.85;;;;;;;11.20;79.51;101229.84;5050260;28;20032;-77
2021/10/28 16:58:39;;;;;;;9.27;5.32;;;;;;;11.09;80.82;101226.31;5050783;28;20048;-79
2021/10/28 17:01:05;;;;;;;10.10;5.60;;;;;;;10.99;81.33;101222.75;5050180;28;20058;-75
2021/10/28 17:03:30;;;;;;;11.75;4.80;;;;;;;10.90;81.19;101221.72;5050547;28;20564;-78
2021/10/28 17:05:56;;;;;;;13.27;5.70;;;;;;;10.93;81.07;101216.13;5048354;28;20176;-75
2021/10/28 17:08:21;;;;;;;9.25;4.82;;;;;;;10.89;81.25;101219.19;5050291;28;20120;-77
2021/10/28 17:10:47;;;;;;;8.98;6.18;;;;;;;10.81;81.38;101213.66;5050628;28;20477;-80
2021/10/28 17:13:13;;;;;;;10.27;5.20;;;;;;;10.73;82.08;101217.84;5050185;28;20420;-75
2021/10/28 17:15:38;;;;;;;13.73;5.70;;;;;;;10.70;82.08;101215.44;5050549;28;20040;-84
2021/10/28 17:18:04;;;;;;;8.00;5.70;;;;;;;10.66;82.36;101207.84;5049212;28;20037;-79
2021/10/28 17:20:34;;;;;;;10.60;5.13;;;;;;;10.65;82.36;101207.00;5050582;28;20064;-75
2021/10/28 17:23:00;;;;;;;7.30;4.90;;;;;;;10.59;82.75;101213.69;5049737;28;20466;-76
2021/10/28 17:25:26;;;;;;;8.80;5.20;;;;;;;10.63;82.63;101213.41;5050345;28;20033;-79
2021/10/28 17:27:52;;;;;;;9.70;4.82;;;;;;;10.62;82.61;101207.25;5051933;28;20029;-83
2021/10/28 17:30:18;;;;;;;13.98;4.90;;;;;;;10.64;82.37;101212.44;5049192;28;20043;-80
2021/10/28 17:32:44;;;;;;;7.00;5.07;;;;;;;10.63;82.52;101200.13;5050570;28;20040;-76
2021/10/28 17:35:11;;;;;;;11.32;5.80;;;;;;;10.56;82.62;101199.81;5049388;28;20386;-76
2021/10/28 17:37:37;;;;;;;8.27;5.00;;;;;;;10.54;82.64;101210.59;5050312;28;20036;-78
2021/10/28 17:40:04;;;;;;;9.88;5.03;;;;;;;10.49;83.02;101204.78;5048202;28;20029;-76
2021/10/28 17:42:30;;;;;;;10.27;5.30;;;;;;;10.46;83.06;101201.56;5048074;28;20056;-80
2021/10/28 17:44:57;;;;;;;14.02;5.53;;;;;;;10.41;83.07;101199.28;5049990;28;20033;-77
2021/10/28 17:47:24;;;;;;;14.95;5.05;;;;;;;10.34;83.53;101204.25;5049619;28;20473;-76
2021/10/28 17:49:51;;;;;;;7.35;4.72;;;;;;;10.29;84.03;101195.81;5049994;28;20090;-80
2021/10/28 17:52:18;;;;;;;8.73;4.90;;;;;;;10.27;83.97;101200.41;5049380;28;20108;-77
2021/10/28 17:54:43;;;;;;;9.02;5.03;;;;;;;10.26;84.13;101205.88;5049484;28;20052;-75
2021/10/28 17:57:09;;;;;;;8.73;5.20;;;;;;;10.21;84.75;101204.44;5049490;28;20144;-77
2021/10/28 17:59:35;;;;;;;8.90;4.32;;;;;;;10.16;84.20;101209.28;5050286;28;20102;-82
2021/10/28 18:02:00;;;;;;;9.30;4.97;;;;;;;10.11;84.81;101200.84;5049779;28;20056;-82
2021/10/28 18:04:26;;;;;;;11.93;5.28;;;;;;;10.06;84.86;101200.38;5050068;28;20029;-82
2021/10/28 18:06:51;;;;;;;12.27;5.47;;;;;;;10.01;85.24;101199.91;5049487;28;20028;-79
2021/10/28 18:09:18;;;;;;;10.10;5.38;;;;;;;9.98;85.74;101202.81;5049081;28;20112;-81
2021/10/28 18:11:45;;;;;;;8.63;5.30;;;;;;;9.92;85.79;101198.84;5049643;28;20430;-78
2021/10/28 18:14:16;;;;;;;7.00;5.13;;;;;;;9.94;85.58;101196.94;5047370;28;20064;-84
2021/10/28 18:16:42;;;;;;;9.52;5.63;;;;;;;9.96;86.01;101194.97;5049806;28;20426;-81
2021/10/28 18:19:09;;;;;;;8.77;5.45;;;;;;;9.99;86.41;101193.88;5048586;28;20045;-82
2021/10/28 18:21:37;;;;;;;10.20;5.80;;;;;;;10.00;85.74;101179.59;5049598;28;20041;-81
2021/10/28 18:24:04;;;;;;;11.23;5.53;;;;;;;10.02;85.95;101181.19;5049187;28;20032;-84
2021/10/28 18:26:29;;;;;;;9.68;5.72;;;;;;;10.01;85.46;101181.31;5049487;28;20025;-83
2021/10/28 18:28:58;;;;;;;8.90;5.35;;;;;;;9.96;85.89;101188.84;5049705;28;20388;-82
2021/10/28 18:31:26;;;;;;;11.23;5.82;;;;;;;9.92;86.36;101190.88;5047263;28;20044;-82
2021/10/28 18:33:52;;;;;;;8.10;5.80;;;;;;;9.92;86.53;101196.19;5049503;28;20039;-83
2021/10/28 18:36:18;;;;;;;9.00;5.28;;;;;;;9.94;86.69;101193.41;5048957;28;20140;-80
2021/10/28 18:38:45;;;;;;;12.38;5.68;;;;;;;9.92;86.74;101187.38;5049404;28;20053;-82
2021/10/28 18:41:12;;;;;;;7.68;5.60;;;;;;;9.89;86.30;101189.31;5050382;28;20036;-80
2021/10/28 18:43:39;;;;;;;8.45;5.50;;;;;;;9.88;86.84;101184.13;5052043;28;20033;-85
2021/10/28 18:46:04;;;;;;;13.13;6.03;;;;;;;9.89;87.36;101191.13;5053095;28;20051;-80
2021/10/28 18:48:30;;;;;;;10.95;5.50;;;;;;;9.86;87.51;101188.72;5053248;28;20033;-82
2021/10/28 18:50:56;;;;;;;8.43;5.57;;;;;;;9.88;87.56;101187.63;5053363;28;20412;-81
2021/10/28 18:53:22;;;;;;;10.10;5.55;;;;;;;9.89;87.91;101197.28;5052398;28;20060;-83
2021/10/28 18:55:48;;;;;;;10.32;5.35;;;;;;;9.89;87.70;101184.00;5053199;28;20033;-81
2021/10/28 18:58:13;;;;;;;6.80;5.78;;;;;;;9.91;88.27;101183.88;5052571;28;20434;-84
2021/10/28 19:00:39;;;;;;;9.77;5.40;;;;;;;9.98;88.29;101182.38;5053147;28;20025;-82
2021/10/28 19:03:04;;;;;;;9.73;6.03;;;;;;;9.96;88.59;101181.69;5053020;28;20037;-82
2021/10/28 19:05:30;;;;;;;9.15;5.80;;;;;;;9.98;88.81;101193.03;5051771;28;20037;-80
2021/10/28 19:07:56;;;;;;;8.45;5.60;;;;;;;9.98;88.83;101187.72;5052853;28;20117;-78
2021/10/28 19:10:22;;;;;;;11.20;5.88;;;;;;;9.99;88.99;101194.72;5051984;28;20477;-81
2021/10/28 19:12:48;;;;;;;10.07;5.50;;;;;;;10.00;89.25;101180.47;5052896;28;20055;-81
2021/10/28 19:15:15;;;;;;;10.48;5.82;;;;;;;9.99;88.96;101176.13;5052691;28;20406;-80
2021/10/28 19:17:43;;;;;;;8.77;6.38;;;;;;;10.02;89.37;101178.53;5052311;28;20040;-81
2021/10/28 19:20:09;;;;;;;12.02;6.20;;;;;;;10.03;88.92;101166.91;5052698;28;20048;-79
2021/10/28 19:22:35;;;;;;;8.45;6.15;;;;;;;10.04;88.99;101168.59;5052673;28;20033;-83
2021/10/28 19:25:04;;;;;;;10.77;6.25;;;;;;;10.06;88.76;101169.31;5052849;28;20036;-81
2021/10/28 19:27:29;;;;;;;11.75;6.57;;;;;;;10.01;89.15;101166.19;5052533;28;20114;-82
2021/10/28 19:30:07;;;;;;;10.82;6.28;;;;;;;10.00;89.21;101163.66;5052356;28;20116;-80
2021/10/28 19:32:34;;;;;;;9.20;6.10;;;;;;;9.98;89.45;101162.94;5050973;28;20078;-81
2021/10/28 19:35:00;;;;;;;10.07;6.38;;;;;;;9.95;89.37;101161.38;5051236;28;20044;-83
2021/10/28 19:40:41;;;;;;;12.55;6.10;;;;;;;9.96;89.61;101149.78;5052378;28;20041;-78
2021/10/28 19:48:04;;;;;;;10.60;5.95;;;;;;;9.95;89.49;101149.91;5051953;28;20103;-86
2021/10/28 19:50:30;;;;;;;13.63;6.57;;;;;;;9.97;89.36;101148.81;5050637;28;20389;-82
2021/10/28 19:52:55;;;;;;;11.68;6.40;;;;;;;9.97;89.52;101151.50;5051946;28;20534;-81
2021/10/28 19:55:20;;;;;;;13.50;6.80;;;;;;;9.95;89.72;101147.25;5051001;28;20112;-82
2021/10/28 19:57:52;;;;;;;12.35;6.43;;;;;;;9.96;89.86;101146.28;5051697;28;20095;-79
2021/10/28 20:08:06;;;;;;;12.18;7.45;;;;;;;9.89;89.64;101136.16;5051941;28;20048;-84
2021/10/28 20:21:31;;;;;;;11.27;6.57;;;;;;;9.74;89.40;101121.47;5050099;28;20047;-81
2021/10/28 20:23:57;;;;;;;11.80;6.45;;;;;;;9.69;89.47;101121.88;5051708;28;20041;-82
2021/10/28 20:26:23;;;;;;;9.70;6.47;;;;;;;9.61;90.42;101126.13;5050989;28;20041;-81
2021/10/28 20:28:50;;;;;;;10.20;6.72;;;;;;;9.53;90.25;101121.44;5052150;28;20036;-82
2021/10/28 20:31:20;;;;;;;13.93;6.80;;;;;;;9.49;90.18;101115.53;5054779;28;20060;-83
2021/10/28 20:33:49;;;;;;;13.27;7.13;;;;;;;9.48;90.64;101119.16;5055276;28;20123;-85
2021/10/28 20:38:55;;;;;;;12.23;6.47;;;;;;;9.44;90.53;101123.03;5053173;28;20461;-85
2021/10/28 20:41:21;;;;;;;9.85;7.25;;;;;;;9.43;90.92;101115.19;5050569;28;20041;-83